sensor_id;sensor_type;location;lat;lon;timestamp;P1;durP1;ratioP1;P2;durP2;ratioP2
9729;SDS011;4904;49.152;11.004;2023-03-11T00:02:09;0.80;;;0.80;;
9729;SDS011;4904;49.152;11.004;2023-03-11T00:04:36;0.80;;;0.80;;
9729;SDS011;4904;49.152;11.004;2023-03-11T00:07:04;0.93;;;0.80;;
9729;SDS011;4904;49.152;11.004;2023-03-11T00:09:32;2.60;;;0.80;;
9729;SDS011;4904;49.152;11.004;2023-03-11T00:11:59;1.97;;;1.00;;
9729;SDS011;4904;49.152;11.004;2023-03-11T00:14:27;0.90;;;0.90;;
9729;SDS011;4904;49.152;11.004;2023-03-11T00:16:56;1.13;;;1.03;;
9729;SDS011;4904;49.152;11.004;2023-03-11T00:19:23;0.80;;;0.80;;
9729;SDS011;4904;49.152;11.004;2023-03-11T00:21:50;0.80;;;0.80;;
9729;SDS011;4904;49.152;11.004;2023-03-11T00:24:17;0.80;;;0.80;;
9729;SDS011;4904;49.152;11.004;2023-03-11T00:26:43;1.33;;;1.10;;
9729;SDS011;4904;49.152;11.004;2023-03-11T00:29:10;0.93;;;0.93;;
9729;SDS011;4904;49.152;11.004;2023-03-11T00:31:37;1.03;;;0.93;;
9729;SDS011;4904;49.152;11.004;2023-03-11T00:34:05;0.90;;;0.90;;
9729;SDS011;4904;49.152;11.004;2023-03-11T00:36:32;0.90;;;0.90;;
9729;SDS011;4904;49.152;11.004;2023-03-11T00:39:00;0.70;;;0.70;;
9729;SDS011;4904;49.152;11.004;2023-03-11T00:41:30;1.13;;;0.80;;
9729;SDS011;4904;49.152;11.004;2023-03-11T00:43:57;1.00;;;1.00;;
9729;SDS011;4904;49.152;11.004;2023-03-11T00:46:24;1.20;;;1.20;;
9729;SDS011;4904;49.152;11.004;2023-03-11T00:48:52;0.87;;;0.87;;
9729;SDS011;4904;49.152;11.004;2023-03-11T00:51:20;1.00;;;1.00;;
9729;SDS011;4904;49.152;11.004;2023-03-11T00:53:48;1.00;;;1.00;;
9729;SDS011;4904;49.152;11.004;2023-03-11T00:56:15;0.90;;;0.90;;
9729;SDS011;4904;49.152;11.004;2023-03-11T00:58:42;1.23;;;1.10;;
9729;SDS011;4904;49.152;11.004;2023-03-11T01:01:10;0.97;;;0.90;;
9729;SDS011;4904;49.152;11.004;2023-03-11T01:03:38;0.80;;;0.80;;
9729;SDS011;4904;49.152;11.004;2023-03-11T01:06:05;1.00;;;1.00;;
9729;SDS011;4904;49.152;11.004;2023-03-11T01:08:34;0.83;;;0.83;;
9729;SDS011;4904;49.152;11.004;2023-03-11T01:11:03;1.20;;;1.10;;
9729;SDS011;4904;49.152;11.004;2023-03-11T01:13:31;1.30;;;1.13;;
9729;SDS011;4904;49.152;11.004;2023-03-11T01:15:58;1.13;;;1.03;;
9729;SDS011;4904;49.152;11.004;2023-03-11T01:18:26;1.20;;;1.10;;
9729;SDS011;4904;49.152;11.004;2023-03-11T01:20:53;0.80;;;0.80;;
9729;SDS011;4904;49.152;11.004;2023-03-11T01:23:20;1.07;;;1.07;;
9729;SDS011;4904;49.152;11.004;2023-03-11T01:25:48;1.20;;;1.10;;
9729;SDS011;4904;49.152;11.004;2023-03-11T01:28:15;0.87;;;0.87;;
9729;SDS011;4904;49.152;11.004;2023-03-11T01:30:43;1.00;;;1.00;;
9729;SDS011;4904;49.152;11.004;2023-03-11T01:33:12;0.97;;;0.97;;
9729;SDS011;4904;49.152;11.004;2023-03-11T01:35:41;1.00;;;1.00;;
9729;SDS011;4904;49.152;11.004;2023-03-11T01:38:08;1.40;;;1.30;;
9729;SDS011;4904;49.152;11.004;2023-03-11T01:40:36;1.10;;;1.10;;
9729;SDS011;4904;49.152;11.004;2023-03-11T01:43:06;1.07;;;0.97;;
9729;SDS011;4904;49.152;11.004;2023-03-11T01:46:05;1.40;;;1.30;;
9729;SDS011;4904;49.152;11.004;2023-03-11T01:48:35;1.33;;;1.23;;
9729;SDS011;4904;49.152;11.004;2023-03-11T01:51:03;1.00;;;1.00;;
9729;SDS011;4904;49.152;11.004;2023-03-11T01:53:31;1.13;;;1.13;;
9729;SDS011;4904;49.152;11.004;2023-03-11T01:55:59;0.90;;;0.90;;
9729;SDS011;4904;49.152;11.004;2023-03-11T01:58:30;1.40;;;1.30;;
9729;SDS011;4904;49.152;11.004;2023-03-11T02:00:59;1.30;;;1.20;;
9729;SDS011;4904;49.152;11.004;2023-03-11T02:03:28;1.30;;;1.20;;
9729;SDS011;4904;49.152;11.004;2023-03-11T02:05:59;1.07;;;1.07;;
9729;SDS011;4904;49.152;11.004;2023-03-11T02:08:28;1.10;;;1.10;;
9729;SDS011;4904;49.152;11.004;2023-03-11T02:10:58;0.90;;;0.90;;
9729;SDS011;4904;49.152;11.004;2023-03-11T02:13:25;0.90;;;0.90;;
9729;SDS011;4904;49.152;11.004;2023-03-11T02:15:54;1.10;;;1.00;;
9729;SDS011;4904;49.152;11.004;2023-03-11T02:18:21;1.70;;;0.80;;
9729;SDS011;4904;49.152;11.004;2023-03-11T02:20:49;1.00;;;1.00;;
9729;SDS011;4904;49.152;11.004;2023-03-11T02:23:20;0.87;;;0.87;;
9729;SDS011;4904;49.152;11.004;2023-03-11T02:25:52;0.80;;;0.80;;
9729;SDS011;4904;49.152;11.004;2023-03-11T02:28:26;0.80;;;0.80;;
9729;SDS011;4904;49.152;11.004;2023-03-11T02:30:56;2.33;;;0.90;;
9729;SDS011;4904;49.152;11.004;2023-03-11T02:33:24;1.40;;;1.10;;
9729;SDS011;4904;49.152;11.004;2023-03-11T02:35:56;0.80;;;0.80;;
9729;SDS011;4904;49.152;11.004;2023-03-11T02:38:23;0.83;;;0.83;;
9729;SDS011;4904;49.152;11.004;2023-03-11T02:40:52;1.80;;;0.93;;
9729;SDS011;4904;49.152;11.004;2023-03-11T02:43:22;1.23;;;1.13;;
9729;SDS011;4904;49.152;11.004;2023-03-11T02:45:54;1.33;;;1.20;;
9729;SDS011;4904;49.152;11.004;2023-03-11T02:48:22;0.90;;;0.77;;
9729;SDS011;4904;49.152;11.004;2023-03-11T02:50:50;0.90;;;0.90;;
9729;SDS011;4904;49.152;11.004;2023-03-11T02:53:18;0.90;;;0.90;;
9729;SDS011;4904;49.152;11.004;2023-03-11T02:55:45;2.13;;;0.83;;
9729;SDS011;4904;49.152;11.004;2023-03-11T02:58:12;2.60;;;1.17;;
9729;SDS011;4904;49.152;11.004;2023-03-11T03:00:39;0.83;;;0.83;;
9729;SDS011;4904;49.152;11.004;2023-03-11T03:03:07;0.87;;;0.80;;
9729;SDS011;4904;49.152;11.004;2023-03-11T03:05:34;1.10;;;1.10;;
9729;SDS011;4904;49.152;11.004;2023-03-11T03:08:02;1.23;;;1.13;;
9729;SDS011;4904;49.152;11.004;2023-03-11T03:10:29;1.00;;;1.00;;
9729;SDS011;4904;49.152;11.004;2023-03-11T03:12:56;0.90;;;0.90;;
9729;SDS011;4904;49.152;11.004;2023-03-11T03:15:23;0.77;;;0.70;;
9729;SDS011;4904;49.152;11.004;2023-03-11T03:17:50;1.00;;;0.90;;
9729;SDS011;4904;49.152;11.004;2023-03-11T03:20:18;0.90;;;0.90;;
9729;SDS011;4904;49.152;11.004;2023-03-11T03:22:46;1.03;;;0.97;;
9729;SDS011;4904;49.152;11.004;2023-03-11T03:25:14;1.80;;;0.80;;
9729;SDS011;4904;49.152;11.004;2023-03-11T03:27:41;1.20;;;1.10;;
9729;SDS011;4904;49.152;11.004;2023-03-11T03:30:09;0.83;;;0.83;;
9729;SDS011;4904;49.152;11.004;2023-03-11T03:32:37;1.00;;;0.90;;
9729;SDS011;4904;49.152;11.004;2023-03-11T03:35:04;1.20;;;1.10;;
9729;SDS011;4904;49.152;11.004;2023-03-11T03:37:34;1.10;;;1.00;;
9729;SDS011;4904;49.152;11.004;2023-03-11T03:40:03;1.13;;;0.80;;
9729;SDS011;4904;49.152;11.004;2023-03-11T03:42:32;1.37;;;1.27;;
9729;SDS011;4904;49.152;11.004;2023-03-11T03:44:59;2.37;;;0.97;;
9729;SDS011;4904;49.152;11.004;2023-03-11T03:47:27;0.90;;;0.90;;
9729;SDS011;4904;49.152;11.004;2023-03-11T03:49:54;1.07;;;1.07;;
9729;SDS011;4904;49.152;11.004;2023-03-11T03:52:21;1.20;;;0.80;;
9729;SDS011;4904;49.152;11.004;2023-03-11T03:54:49;2.10;;;0.87;;
9729;SDS011;4904;49.152;11.004;2023-03-11T03:57:17;1.27;;;0.90;;
9729;SDS011;4904;49.152;11.004;2023-03-11T03:59:44;2.97;;;1.00;;
9729;SDS011;4904;49.152;11.004;2023-03-11T04:02:11;1.53;;;0.90;;
9729;SDS011;4904;49.152;11.004;2023-03-11T04:04:38;1.43;;;0.73;;
9729;SDS011;4904;49.152;11.004;2023-03-11T04:07:05;1.13;;;0.90;;
9729;SDS011;4904;49.152;11.004;2023-03-11T04:09:33;1.93;;;0.60;;
9729;SDS011;4904;49.152;11.004;2023-03-11T04:12:01;1.10;;;0.77;;
9729;SDS011;4904;49.152;11.004;2023-03-11T04:14:28;0.73;;;0.70;;
9729;SDS011;4904;49.152;11.004;2023-03-11T04:16:55;1.17;;;0.90;;
9729;SDS011;4904;49.152;11.004;2023-03-11T04:19:22;1.60;;;0.77;;
9729;SDS011;4904;49.152;11.004;2023-03-11T04:21:50;0.60;;;0.60;;
9729;SDS011;4904;49.152;11.004;2023-03-11T04:24:17;3.23;;;1.00;;
9729;SDS011;4904;49.152;11.004;2023-03-11T04:26:44;1.53;;;0.93;;
9729;SDS011;4904;49.152;11.004;2023-03-11T04:29:12;1.43;;;0.80;;
9729;SDS011;4904;49.152;11.004;2023-03-11T04:31:39;0.70;;;0.63;;
9729;SDS011;4904;49.152;11.004;2023-03-11T04:34:05;1.03;;;0.70;;
9729;SDS011;4904;49.152;11.004;2023-03-11T04:36:33;3.60;;;0.70;;
9729;SDS011;4904;49.152;11.004;2023-03-11T04:38:59;3.53;;;0.90;;
9729;SDS011;4904;49.152;11.004;2023-03-11T04:41:26;2.07;;;0.97;;
9729;SDS011;4904;49.152;11.004;2023-03-11T04:43:53;1.67;;;0.93;;
9729;SDS011;4904;49.152;11.004;2023-03-11T04:46:21;0.90;;;0.70;;
9729;SDS011;4904;49.152;11.004;2023-03-11T04:48:48;2.33;;;0.80;;
9729;SDS011;4904;49.152;11.004;2023-03-11T04:51:15;1.50;;;0.90;;
9729;SDS011;4904;49.152;11.004;2023-03-11T04:53:42;3.33;;;1.30;;
9729;SDS011;4904;49.152;11.004;2023-03-11T04:56:09;1.03;;;0.90;;
9729;SDS011;4904;49.152;11.004;2023-03-11T04:58:37;1.83;;;0.90;;
9729;SDS011;4904;49.152;11.004;2023-03-11T05:01:04;0.80;;;0.80;;
9729;SDS011;4904;49.152;11.004;2023-03-11T05:03:32;0.70;;;0.70;;
9729;SDS011;4904;49.152;11.004;2023-03-11T05:05:59;0.80;;;0.70;;
9729;SDS011;4904;49.152;11.004;2023-03-11T05:08:26;2.20;;;0.70;;
9729;SDS011;4904;49.152;11.004;2023-03-11T05:10:53;4.50;;;0.80;;
9729;SDS011;4904;49.152;11.004;2023-03-11T05:13:20;1.47;;;1.00;;
9729;SDS011;4904;49.152;11.004;2023-03-11T05:15:47;1.00;;;0.87;;
9729;SDS011;4904;49.152;11.004;2023-03-11T05:18:14;1.00;;;0.90;;
9729;SDS011;4904;49.152;11.004;2023-03-11T05:20:42;2.10;;;0.90;;
9729;SDS011;4904;49.152;11.004;2023-03-11T05:23:09;1.47;;;1.00;;
9729;SDS011;4904;49.152;11.004;2023-03-11T05:25:36;1.40;;;0.93;;
9729;SDS011;4904;49.152;11.004;2023-03-11T05:28:03;3.47;;;1.00;;
9729;SDS011;4904;49.152;11.004;2023-03-11T05:30:30;4.67;;;1.13;;
9729;SDS011;4904;49.152;11.004;2023-03-11T05:32:57;0.80;;;0.80;;
9729;SDS011;4904;49.152;11.004;2023-03-11T05:35:24;1.77;;;1.27;;
9729;SDS011;4904;49.152;11.004;2023-03-11T05:37:53;0.63;;;0.63;;
9729;SDS011;4904;49.152;11.004;2023-03-11T05:40:20;1.13;;;0.83;;
9729;SDS011;4904;49.152;11.004;2023-03-11T05:42:47;3.67;;;0.80;;
9729;SDS011;4904;49.152;11.004;2023-03-11T05:45:14;3.43;;;1.07;;
9729;SDS011;4904;49.152;11.004;2023-03-11T05:47:41;0.60;;;0.60;;
9729;SDS011;4904;49.152;11.004;2023-03-11T05:50:08;1.70;;;1.27;;
9729;SDS011;4904;49.152;11.004;2023-03-11T05:52:36;0.83;;;0.83;;
9729;SDS011;4904;49.152;11.004;2023-03-11T05:55:05;2.17;;;0.77;;
9729;SDS011;4904;49.152;11.004;2023-03-11T05:57:33;0.70;;;0.70;;
9729;SDS011;4904;49.152;11.004;2023-03-11T06:00:00;2.63;;;1.23;;
9729;SDS011;4904;49.152;11.004;2023-03-11T06:02:30;1.83;;;0.90;;
9729;SDS011;4904;49.152;11.004;2023-03-11T06:04:57;2.23;;;1.00;;
9729;SDS011;4904;49.152;11.004;2023-03-11T06:07:24;0.63;;;0.63;;
9729;SDS011;4904;49.152;11.004;2023-03-11T06:09:50;0.90;;;0.90;;
9729;SDS011;4904;49.152;11.004;2023-03-11T06:12:19;2.00;;;1.03;;
9729;SDS011;4904;49.152;11.004;2023-03-11T06:14:46;1.70;;;0.90;;
9729;SDS011;4904;49.152;11.004;2023-03-11T06:17:12;1.73;;;1.07;;
9729;SDS011;4904;49.152;11.004;2023-03-11T06:19:39;1.37;;;0.90;;
9729;SDS011;4904;49.152;11.004;2023-03-11T06:22:06;1.30;;;1.10;;
9729;SDS011;4904;49.152;11.004;2023-03-11T06:24:33;1.10;;;1.00;;
9729;SDS011;4904;49.152;11.004;2023-03-11T06:27:00;0.97;;;0.73;;
9729;SDS011;4904;49.152;11.004;2023-03-11T06:29:28;2.00;;;1.00;;
9729;SDS011;4904;49.152;11.004;2023-03-11T06:31:55;1.00;;;0.90;;
9729;SDS011;4904;49.152;11.004;2023-03-11T06:34:22;2.20;;;0.80;;
9729;SDS011;4904;49.152;11.004;2023-03-11T06:36:49;1.90;;;1.30;;
9729;SDS011;4904;49.152;11.004;2023-03-11T06:39:16;1.93;;;0.90;;
9729;SDS011;4904;49.152;11.004;2023-03-11T06:41:43;1.13;;;0.83;;
9729;SDS011;4904;49.152;11.004;2023-03-11T06:44:10;2.43;;;1.13;;
9729;SDS011;4904;49.152;11.004;2023-03-11T06:46:38;2.10;;;0.80;;
9729;SDS011;4904;49.152;11.004;2023-03-11T06:49:05;1.00;;;0.90;;
9729;SDS011;4904;49.152;11.004;2023-03-11T06:51:32;3.40;;;1.00;;
9729;SDS011;4904;49.152;11.004;2023-03-11T06:53:59;1.17;;;0.90;;
9729;SDS011;4904;49.152;11.004;2023-03-11T06:56:26;2.43;;;1.20;;
9729;SDS011;4904;49.152;11.004;2023-03-11T06:58:53;1.80;;;1.10;;
9729;SDS011;4904;49.152;11.004;2023-03-11T07:01:21;3.30;;;1.10;;
9729;SDS011;4904;49.152;11.004;2023-03-11T07:03:50;2.80;;;1.10;;
9729;SDS011;4904;49.152;11.004;2023-03-11T07:06:18;3.63;;;0.93;;
9729;SDS011;4904;49.152;11.004;2023-03-11T07:08:46;3.17;;;1.20;;
9729;SDS011;4904;49.152;11.004;2023-03-11T07:11:15;5.10;;;1.30;;
9729;SDS011;4904;49.152;11.004;2023-03-11T07:13:43;3.27;;;1.03;;
9729;SDS011;4904;49.152;11.004;2023-03-11T07:16:12;2.30;;;1.20;;
9729;SDS011;4904;49.152;11.004;2023-03-11T07:18:40;1.17;;;0.90;;
9729;SDS011;4904;49.152;11.004;2023-03-11T07:21:10;1.40;;;1.07;;
9729;SDS011;4904;49.152;11.004;2023-03-11T07:23:39;1.27;;;1.07;;
9729;SDS011;4904;49.152;11.004;2023-03-11T07:26:06;1.50;;;1.03;;
9729;SDS011;4904;49.152;11.004;2023-03-11T07:28:34;3.20;;;1.40;;
9729;SDS011;4904;49.152;11.004;2023-03-11T07:31:05;4.23;;;1.40;;
9729;SDS011;4904;49.152;11.004;2023-03-11T07:33:32;3.03;;;1.70;;
9729;SDS011;4904;49.152;11.004;2023-03-11T07:36:03;1.70;;;0.97;;
9729;SDS011;4904;49.152;11.004;2023-03-11T07:38:32;1.60;;;1.37;;
9729;SDS011;4904;49.152;11.004;2023-03-11T07:40:59;2.77;;;1.20;;
9729;SDS011;4904;49.152;11.004;2023-03-11T07:43:26;1.57;;;1.10;;
9729;SDS011;4904;49.152;11.004;2023-03-11T07:46:00;2.00;;;1.13;;
9729;SDS011;4904;49.152;11.004;2023-03-11T07:48:28;1.50;;;1.20;;
9729;SDS011;4904;49.152;11.004;2023-03-11T07:50:59;1.50;;;1.23;;
9729;SDS011;4904;49.152;11.004;2023-03-11T07:53:32;3.87;;;1.33;;
9729;SDS011;4904;49.152;11.004;2023-03-11T07:55:59;1.50;;;1.23;;
9729;SDS011;4904;49.152;11.004;2023-03-11T07:58:27;1.57;;;1.10;;
9729;SDS011;4904;49.152;11.004;2023-03-11T08:00:55;6.23;;;3.23;;
9729;SDS011;4904;49.152;11.004;2023-03-11T08:03:22;1.67;;;1.57;;
9729;SDS011;4904;49.152;11.004;2023-03-11T08:05:49;3.70;;;1.60;;
9729;SDS011;4904;49.152;11.004;2023-03-11T08:08:17;2.07;;;1.10;;
9729;SDS011;4904;49.152;11.004;2023-03-11T08:10:46;3.37;;;1.63;;
9729;SDS011;4904;49.152;11.004;2023-03-11T08:13:13;2.17;;;1.13;;
9729;SDS011;4904;49.152;11.004;2023-03-11T08:15:40;3.37;;;1.20;;
9729;SDS011;4904;49.152;11.004;2023-03-11T08:18:07;3.37;;;1.03;;
9729;SDS011;4904;49.152;11.004;2023-03-11T08:20:36;4.97;;;1.80;;
9729;SDS011;4904;49.152;11.004;2023-03-11T08:23:03;1.17;;;1.10;;
9729;SDS011;4904;49.152;11.004;2023-03-11T08:25:30;1.67;;;1.13;;
9729;SDS011;4904;49.152;11.004;2023-03-11T08:27:59;2.20;;;1.57;;
9729;SDS011;4904;49.152;11.004;2023-03-11T08:30:25;5.40;;;1.60;;
9729;SDS011;4904;49.152;11.004;2023-03-11T08:32:52;1.73;;;1.30;;
9729;SDS011;4904;49.152;11.004;2023-03-11T08:35:20;1.50;;;1.10;;
9729;SDS011;4904;49.152;11.004;2023-03-11T08:37:47;2.97;;;1.67;;
9729;SDS011;4904;49.152;11.004;2023-03-11T08:40:14;1.53;;;1.03;;
9729;SDS011;4904;49.152;11.004;2023-03-11T08:42:41;1.33;;;1.10;;
9729;SDS011;4904;49.152;11.004;2023-03-11T08:45:10;3.90;;;2.03;;
9729;SDS011;4904;49.152;11.004;2023-03-11T08:47:38;1.83;;;1.30;;
9729;SDS011;4904;49.152;11.004;2023-03-11T08:50:05;3.13;;;1.20;;
9729;SDS011;4904;49.152;11.004;2023-03-11T08:52:34;2.37;;;1.67;;
9729;SDS011;4904;49.152;11.004;2023-03-11T08:55:01;3.73;;;1.73;;
9729;SDS011;4904;49.152;11.004;2023-03-11T08:57:29;1.33;;;1.03;;
9729;SDS011;4904;49.152;11.004;2023-03-11T08:59:56;2.97;;;1.40;;
9729;SDS011;4904;49.152;11.004;2023-03-11T09:02:24;3.87;;;1.43;;
9729;SDS011;4904;49.152;11.004;2023-03-11T09:04:51;7.63;;;1.60;;
9729;SDS011;4904;49.152;11.004;2023-03-11T09:07:18;3.57;;;1.80;;
9729;SDS011;4904;49.152;11.004;2023-03-11T09:09:45;2.20;;;1.40;;
9729;SDS011;4904;49.152;11.004;2023-03-11T09:12:12;1.10;;;0.90;;
9729;SDS011;4904;49.152;11.004;2023-03-11T09:14:39;5.03;;;4.53;;
9729;SDS011;4904;49.152;11.004;2023-03-11T09:17:05;6.87;;;4.97;;
9729;SDS011;4904;49.152;11.004;2023-03-11T09:19:34;5.10;;;3.23;;
9729;SDS011;4904;49.152;11.004;2023-03-11T09:22:01;1.40;;;1.23;;
9729;SDS011;4904;49.152;11.004;2023-03-11T09:24:31;1.70;;;1.60;;
9729;SDS011;4904;49.152;11.004;2023-03-11T09:26:58;3.57;;;1.50;;
9729;SDS011;4904;49.152;11.004;2023-03-11T09:29:25;1.63;;;1.30;;
9729;SDS011;4904;49.152;11.004;2023-03-11T09:31:53;5.30;;;1.83;;
9729;SDS011;4904;49.152;11.004;2023-03-11T09:34:20;1.60;;;1.13;;
9729;SDS011;4904;49.152;11.004;2023-03-11T09:36:48;2.67;;;1.60;;
9729;SDS011;4904;49.152;11.004;2023-03-11T09:39:15;1.50;;;1.40;;
9729;SDS011;4904;49.152;11.004;2023-03-11T09:41:45;1.80;;;1.37;;
9729;SDS011;4904;49.152;11.004;2023-03-11T09:44:19;3.87;;;1.47;;
9729;SDS011;4904;49.152;11.004;2023-03-11T09:47:08;3.67;;;1.70;;
9729;SDS011;4904;49.152;11.004;2023-03-11T09:52:41;4.23;;;1.50;;
9729;SDS011;4904;49.152;11.004;2023-03-11T09:55:26;2.13;;;1.40;;
9729;SDS011;4904;49.152;11.004;2023-03-11T09:57:59;3.33;;;1.50;;
9729;SDS011;4904;49.152;11.004;2023-03-11T10:00:28;2.13;;;1.07;;
9729;SDS011;4904;49.152;11.004;2023-03-11T10:02:55;1.43;;;1.00;;
9729;SDS011;4904;49.152;11.004;2023-03-11T10:05:25;4.00;;;1.30;;
9729;SDS011;4904;49.152;11.004;2023-03-11T10:07:58;3.47;;;1.50;;
9729;SDS011;4904;49.152;11.004;2023-03-11T10:10:29;0.80;;;0.80;;
9729;SDS011;4904;49.152;11.004;2023-03-11T10:13:05;1.47;;;1.27;;
9729;SDS011;4904;49.152;11.004;2023-03-11T10:15:41;1.53;;;1.27;;
9729;SDS011;4904;49.152;11.004;2023-03-11T10:18:34;3.20;;;1.70;;
9729;SDS011;4904;49.152;11.004;2023-03-11T10:21:14;2.23;;;1.67;;
9729;SDS011;4904;49.152;11.004;2023-03-11T10:23:53;3.10;;;1.10;;
9729;SDS011;4904;49.152;11.004;2023-03-11T10:26:27;1.40;;;1.17;;
9729;SDS011;4904;49.152;11.004;2023-03-11T10:28:59;2.57;;;1.40;;
9729;SDS011;4904;49.152;11.004;2023-03-11T10:31:33;2.10;;;1.70;;
9729;SDS011;4904;49.152;11.004;2023-03-11T10:34:10;1.20;;;1.07;;
9729;SDS011;4904;49.152;11.004;2023-03-11T10:36:45;1.80;;;1.23;;
9729;SDS011;4904;49.152;11.004;2023-03-11T10:39:20;3.43;;;2.17;;
9729;SDS011;4904;49.152;11.004;2023-03-11T10:41:48;1.40;;;1.30;;
9729;SDS011;4904;49.152;11.004;2023-03-11T10:44:19;2.03;;;1.50;;
9729;SDS011;4904;49.152;11.004;2023-03-11T10:46:50;1.20;;;1.07;;
9729;SDS011;4904;49.152;11.004;2023-03-11T10:49:17;1.57;;;1.40;;
9729;SDS011;4904;49.152;11.004;2023-03-11T10:51:45;2.63;;;1.73;;
9729;SDS011;4904;49.152;11.004;2023-03-11T10:54:23;2.27;;;1.50;;
9729;SDS011;4904;49.152;11.004;2023-03-11T10:56:55;2.53;;;1.47;;
9729;SDS011;4904;49.152;11.004;2023-03-11T10:59:25;1.10;;;1.00;;
9729;SDS011;4904;49.152;11.004;2023-03-11T11:01:55;1.87;;;1.77;;
9729;SDS011;4904;49.152;11.004;2023-03-11T11:04:30;1.60;;;1.50;;
9729;SDS011;4904;49.152;11.004;2023-03-11T11:07:20;3.03;;;1.30;;
9729;SDS011;4904;49.152;11.004;2023-03-11T11:10:11;1.57;;;1.20;;
9729;SDS011;4904;49.152;11.004;2023-03-11T11:12:50;2.20;;;1.70;;
9729;SDS011;4904;49.152;11.004;2023-03-11T11:15:20;2.37;;;1.60;;
9729;SDS011;4904;49.152;11.004;2023-03-11T11:17:48;2.50;;;1.50;;
9729;SDS011;4904;49.152;11.004;2023-03-11T11:20:16;3.80;;;2.97;;
9729;SDS011;4904;49.152;11.004;2023-03-11T11:22:49;2.03;;;1.57;;
9729;SDS011;4904;49.152;11.004;2023-03-11T11:25:27;2.57;;;1.57;;
9729;SDS011;4904;49.152;11.004;2023-03-11T11:27:58;1.57;;;1.30;;
9729;SDS011;4904;49.152;11.004;2023-03-11T11:30:27;3.07;;;1.53;;
9729;SDS011;4904;49.152;11.004;2023-03-11T11:32:54;3.00;;;1.50;;
9729;SDS011;4904;49.152;11.004;2023-03-11T11:35:21;2.40;;;1.33;;
9729;SDS011;4904;49.152;11.004;2023-03-11T11:37:50;3.33;;;1.00;;
9729;SDS011;4904;49.152;11.004;2023-03-11T11:40:27;1.60;;;1.10;;
9729;SDS011;4904;49.152;11.004;2023-03-11T11:42:56;1.47;;;1.37;;
9729;SDS011;4904;49.152;11.004;2023-03-11T11:45:28;1.03;;;0.93;;
9729;SDS011;4904;49.152;11.004;2023-03-11T11:48:02;1.33;;;1.10;;
9729;SDS011;4904;49.152;11.004;2023-03-11T11:50:33;1.40;;;1.30;;
9729;SDS011;4904;49.152;11.004;2023-03-11T11:53:03;1.27;;;1.17;;
9729;SDS011;4904;49.152;11.004;2023-03-11T11:55:40;0.90;;;0.90;;
9729;SDS011;4904;49.152;11.004;2023-03-11T11:58:12;3.80;;;1.40;;
9729;SDS011;4904;49.152;11.004;2023-03-11T12:00:41;1.30;;;1.20;;
9729;SDS011;4904;49.152;11.004;2023-03-11T12:03:23;1.50;;;1.40;;
9729;SDS011;4904;49.152;11.004;2023-03-11T12:06:08;1.07;;;1.00;;
9729;SDS011;4904;49.152;11.004;2023-03-11T12:08:45;1.67;;;1.17;;
9729;SDS011;4904;49.152;11.004;2023-03-11T12:11:20;1.20;;;1.10;;
9729;SDS011;4904;49.152;11.004;2023-03-11T12:13:52;1.27;;;1.17;;
9729;SDS011;4904;49.152;11.004;2023-03-11T12:16:30;1.30;;;1.20;;
9729;SDS011;4904;49.152;11.004;2023-03-11T12:19:09;1.73;;;1.20;;
9729;SDS011;4904;49.152;11.004;2023-03-11T12:24:40;2.67;;;1.60;;
9729;SDS011;4904;49.152;11.004;2023-03-11T12:27:21;1.20;;;1.10;;
9729;SDS011;4904;49.152;11.004;2023-03-11T12:29:52;2.40;;;1.53;;
9729;SDS011;4904;49.152;11.004;2023-03-11T12:32:23;1.07;;;0.90;;
9729;SDS011;4904;49.152;11.004;2023-03-11T12:34:59;2.43;;;1.37;;
9729;SDS011;4904;49.152;11.004;2023-03-11T12:37:28;1.37;;;0.90;;
9729;SDS011;4904;49.152;11.004;2023-03-11T12:39:56;0.90;;;0.90;;
9729;SDS011;4904;49.152;11.004;2023-03-11T12:42:24;2.80;;;1.53;;
9729;SDS011;4904;49.152;11.004;2023-03-11T12:48:30;1.10;;;1.00;;
9729;SDS011;4904;49.152;11.004;2023-03-11T12:50:59;1.30;;;1.20;;
9729;SDS011;4904;49.152;11.004;2023-03-11T12:53:43;1.47;;;1.37;;
9729;SDS011;4904;49.152;11.004;2023-03-11T12:56:15;1.47;;;1.20;;
9729;SDS011;4904;49.152;11.004;2023-03-11T12:59:01;3.43;;;1.33;;
9729;SDS011;4904;49.152;11.004;2023-03-11T13:01:56;1.50;;;1.40;;
9729;SDS011;4904;49.152;11.004;2023-03-11T13:04:32;1.30;;;1.20;;
9729;SDS011;4904;49.152;11.004;2023-03-11T13:13:00;2.43;;;1.40;;
9729;SDS011;4904;49.152;11.004;2023-03-11T13:15:30;1.93;;;1.30;;
9729;SDS011;4904;49.152;11.004;2023-03-11T13:18:01;1.80;;;1.70;;
9729;SDS011;4904;49.152;11.004;2023-03-11T13:20:42;2.50;;;1.80;;
9729;SDS011;4904;49.152;11.004;2023-03-11T13:23:22;1.73;;;1.63;;
9729;SDS011;4904;49.152;11.004;2023-03-11T13:26:04;1.60;;;1.50;;
9729;SDS011;4904;49.152;11.004;2023-03-11T13:29:04;1.50;;;1.40;;
9729;SDS011;4904;49.152;11.004;2023-03-11T13:32:27;2.37;;;1.40;;
9729;SDS011;4904;49.152;11.004;2023-03-11T13:35:15;1.63;;;1.53;;
9729;SDS011;4904;49.152;11.004;2023-03-11T13:38:00;2.40;;;1.50;;
9729;SDS011;4904;49.152;11.004;2023-03-11T13:40:39;1.80;;;1.43;;
9729;SDS011;4904;49.152;11.004;2023-03-11T13:43:08;3.57;;;1.63;;
9729;SDS011;4904;49.152;11.004;2023-03-11T13:45:39;1.40;;;1.30;;
9729;SDS011;4904;49.152;11.004;2023-03-11T13:48:13;2.70;;;1.80;;
9729;SDS011;4904;49.152;11.004;2023-03-11T13:50:44;3.13;;;1.83;;
9729;SDS011;4904;49.152;11.004;2023-03-11T13:53:15;2.10;;;1.77;;
9729;SDS011;4904;49.152;11.004;2023-03-11T13:55:47;1.90;;;1.70;;
9729;SDS011;4904;49.152;11.004;2023-03-11T13:58:15;3.17;;;1.70;;
9729;SDS011;4904;49.152;11.004;2023-03-11T14:00:47;3.07;;;1.67;;
9729;SDS011;4904;49.152;11.004;2023-03-11T14:03:16;3.23;;;1.57;;
9729;SDS011;4904;49.152;11.004;2023-03-11T14:05:47;2.50;;;2.03;;
9729;SDS011;4904;49.152;11.004;2023-03-11T14:08:18;1.87;;;1.60;;
9729;SDS011;4904;49.152;11.004;2023-03-11T14:10:51;2.53;;;1.80;;
9729;SDS011;4904;49.152;11.004;2023-03-11T14:13:20;3.30;;;1.80;;
9729;SDS011;4904;49.152;11.004;2023-03-11T14:15:51;3.03;;;1.70;;
9729;SDS011;4904;49.152;11.004;2023-03-11T14:18:26;3.17;;;1.80;;
9729;SDS011;4904;49.152;11.004;2023-03-11T14:20:55;2.27;;;1.53;;
9729;SDS011;4904;49.152;11.004;2023-03-11T14:23:24;2.47;;;1.80;;
9729;SDS011;4904;49.152;11.004;2023-03-11T14:25:58;2.90;;;2.00;;
9729;SDS011;4904;49.152;11.004;2023-03-11T14:28:26;2.93;;;1.90;;
9729;SDS011;4904;49.152;11.004;2023-03-11T14:30:57;3.90;;;1.80;;
9729;SDS011;4904;49.152;11.004;2023-03-11T14:33:27;3.87;;;1.93;;
9729;SDS011;4904;49.152;11.004;2023-03-11T14:35:54;3.13;;;2.53;;
9729;SDS011;4904;49.152;11.004;2023-03-11T14:38:23;3.70;;;2.40;;
9729;SDS011;4904;49.152;11.004;2023-03-11T14:40:53;2.90;;;2.47;;
9729;SDS011;4904;49.152;11.004;2023-03-11T14:43:22;3.50;;;2.50;;
9729;SDS011;4904;49.152;11.004;2023-03-11T14:45:49;5.57;;;2.47;;
9729;SDS011;4904;49.152;11.004;2023-03-11T14:48:18;4.63;;;3.00;;
9729;SDS011;4904;49.152;11.004;2023-03-11T14:50:51;2.10;;;1.90;;
9729;SDS011;4904;49.152;11.004;2023-03-11T14:53:19;1.77;;;1.67;;
9729;SDS011;4904;49.152;11.004;2023-03-11T14:55:53;2.00;;;1.80;;
9729;SDS011;4904;49.152;11.004;2023-03-11T14:58:24;2.77;;;1.80;;
9729;SDS011;4904;49.152;11.004;2023-03-11T15:00:59;2.00;;;1.60;;
9729;SDS011;4904;49.152;11.004;2023-03-11T15:03:31;2.43;;;1.70;;
9729;SDS011;4904;49.152;11.004;2023-03-11T15:06:02;3.43;;;1.60;;
9729;SDS011;4904;49.152;11.004;2023-03-11T15:08:33;2.43;;;1.60;;
9729;SDS011;4904;49.152;11.004;2023-03-11T15:11:04;2.70;;;2.47;;
9729;SDS011;4904;49.152;11.004;2023-03-11T15:13:33;2.88;;;1.63;;
9729;SDS011;4904;49.152;11.004;2023-03-11T15:16:01;2.58;;;1.77;;
9729;SDS011;4904;49.152;11.004;2023-03-11T15:18:31;2.60;;;2.10;;
9729;SDS011;4904;49.152;11.004;2023-03-11T15:21:03;5.17;;;4.00;;
9729;SDS011;4904;49.152;11.004;2023-03-11T15:23:33;3.23;;;2.33;;
9729;SDS011;4904;49.152;11.004;2023-03-11T15:26:01;5.73;;;2.87;;
9729;SDS011;4904;49.152;11.004;2023-03-11T15:28:31;7.67;;;5.00;;
9729;SDS011;4904;49.152;11.004;2023-03-11T15:33:55;3.60;;;2.85;;
9729;SDS011;4904;49.152;11.004;2023-03-11T15:36:35;3.15;;;2.47;;